Time;durP1;ratioP1;P1;durP2;ratioP2;P2;SDS_P1;SDS_P2;PMS_P1;PMS_P2;Temp;Humidity;BMP_temperature;BMP_pressure;BME280_temperature;BME280_humidity;BME280_pressure;Samples;Min_cycle;Max_cycle;Signal;HPM_P1;HPM_P2
2022/04/29 00:00:41;;;;;;;11.53;7.67;;;;;;;8.19;69.81;101807.36;1686664;84;21518;-76
2022/04/29 00:03:11;;;;;;;14.13;8.28;;;;;;;8.17;69.66;101807.80;1690388;84;21557;-74
2022/04/29 00:05:40;;;;;;;12.43;8.60;;;;;;;8.17;70.05;101810.86;1690576;84;21091;-73
2022/04/29 00:08:10;;;;;;;12.85;7.67;;;;;;;8.16;70.17;101811.74;1694438;83;21043;-73
2022/04/29 00:10:38;;;;;;;10.40;7.97;;;;;;;8.15;70.08;101810.02;1689502;84;21068;-74
2022/04/29 00:13:09;;;;;;;13.50;8.03;;;;;;;8.14;69.97;101812.17;1698342;83;21119;-75
2022/04/29 00:15:37;;;;;;;12.40;8.05;;;;;;;8.16;70.13;101806.52;1697097;83;21111;-73
2022/04/29 00:18:05;;;;;;;14.77;7.20;;;;;;;8.17;70.02;101809.55;1694498;84;21067;-76
2022/04/29 00:20:32;;;;;;;10.07;7.23;;;;;;;8.19;69.82;101800.83;1723111;82;21056;-73
2022/04/29 00:22:59;;;;;;;11.83;7.40;;;;;;;8.22;69.89;101804.73;1730233;82;21506;-73
2022/04/29 00:25:28;;;;;;;10.93;7.33;;;;;;;8.23;70.00;101807.80;1731518;82;21012;-77
2022/04/29 00:27:56;;;;;;;10.77;6.70;;;;;;;8.25;70.05;101811.69;1731115;82;21218;-73
2022/04/29 00:30:23;;;;;;;9.60;6.37;;;;;;;8.28;69.55;101814.28;1722716;82;21126;-73
2022/04/29 00:32:51;;;;;;;11.73;6.90;;;;;;;8.37;69.08;101818.17;1726300;82;20993;-74
2022/04/29 00:35:17;;;;;;;9.77;6.53;;;;;;;8.47;68.78;101811.17;1723776;82;21368;-73
2022/04/29 00:37:51;;;;;;;11.27;6.93;;;;;;;8.58;68.46;101808.50;1731478;82;21016;-73
2022/04/29 00:40:21;;;;;;;9.80;7.13;;;;;;;8.66;68.28;101806.70;1729342;82;21076;-74
2022/04/29 00:42:48;;;;;;;11.83;7.30;;;;;;;8.73;68.11;101807.11;1729046;82;21087;-75
2022/04/29 00:45:19;;;;;;;9.07;6.60;;;;;;;8.81;67.98;101806.61;1729350;82;21071;-73
2022/04/29 00:47:48;;;;;;;10.63;6.83;;;;;;;8.86;67.89;101806.56;1734296;82;21470;-73
2022/04/29 00:50:20;;;;;;;12.10;7.13;;;;;;;8.89;67.93;101807.39;1734478;82;21036;-75
2022/04/29 00:52:51;;;;;;;12.50;7.23;;;;;;;8.91;67.83;101812.18;1736519;82;21057;-73
2022/04/29 00:55:20;;;;;;;9.07;6.60;;;;;;;8.94;67.36;101806.92;1722882;82;21103;-74
2022/04/29 00:58:01;;;;;;;9.83;6.90;;;;;;;8.98;67.47;101800.36;1730653;82;21052;-74
2022/04/29 01:00:29;;;;;;;10.83;7.37;;;;;;;9.01;67.42;101799.06;1727327;82;21044;-74
2022/04/29 01:02:59;;;;;;;11.07;7.43;;;;;;;9.03;67.16;101803.36;1729234;82;21086;-74
2022/04/29 01:05:26;;;;;;;11.20;7.23;;;;;;;9.05;66.85;101800.30;1726096;82;21706;-74
2022/04/29 01:07:54;;;;;;;10.63;7.40;;;;;;;9.08;66.57;101804.64;1730282;82;21057;-73
2022/04/29 01:10:24;;;;;;;10.13;6.87;;;;;;;9.07;66.48;101798.55;1726269;82;21052;-74
2022/04/29 01:12:59;;;;;;;10.15;7.35;;;;;;;9.08;66.30;101792.87;1727968;82;21012;-74
2022/04/29 01:15:28;;;;;;;12.37;8.40;;;;;;;9.07;66.08;101792.02;1726243;82;21079;-74
2022/04/29 01:18:02;;;;;;;11.40;7.73;;;;;;;9.05;65.91;101792.46;1728770;82;21005;-74
2022/04/29 01:20:32;;;;;;;12.87;8.03;;;;;;;9.04;65.95;101787.26;1726289;82;21483;-74
2022/04/29 01:23:09;;;;;;;13.18;8.68;;;;;;;9.02;65.77;101783.34;1728934;82;21207;-73
2022/04/29 01:25:39;;;;;;;12.70;8.37;;;;;;;9.01;65.77;101779.00;1727694;82;21025;-75
2022/04/29 01:28:07;;;;;;;11.55;8.10;;;;;;;9.02;65.66;101793.80;1725891;82;21048;-74
2022/04/29 01:30:39;;;;;;;11.97;8.25;;;;;;;8.98;65.57;101792.10;1726510;82;21182;-74
2022/04/29 01:33:06;;;;;;;14.75;8.38;;;;;;;8.96;65.62;101794.30;1733753;82;21088;-74
2022/04/29 01:35:33;;;;;;;12.93;8.60;;;;;;;8.92;65.58;101791.72;1730470;82;21013;-74
2022/04/29 01:38:01;;;;;;;13.03;9.10;;;;;;;8.90;65.62;101786.06;1723472;82;21512;-80
2022/04/29 01:40:28;;;;;;;17.17;9.00;;;;;;;8.86;65.58;101784.34;1700093;82;21107;-74
2022/04/29 01:42:56;;;;;;;11.77;8.77;;;;;;;8.82;65.51;101785.25;1722148;82;21064;-74
2022/04/29 01:45:24;;;;;;;14.87;9.43;;;;;;;8.76;65.53;101780.94;1715363;82;21105;-73
2022/04/29 01:47:59;;;;;;;16.73;9.47;;;;;;;8.70;65.49;101781.85;1693376;83;21025;-74
2022/04/29 01:50:31;;;;;;;19.67;9.90;;;;;;;8.64;65.53;101780.56;1680221;83;21044;-74
2022/04/29 01:52:58;;;;;;;14.20;10.17;;;;;;;8.60;65.56;101777.56;1706756;84;21040;-76
2022/04/29 01:55:26;;;;;;;16.23;9.83;;;;;;;8.57;65.58;101775.41;1691580;83;21058;-73
2022/04/29 01:57:53;;;;;;;15.53;10.03;;;;;;;8.52;65.56;101774.57;1702601;83;21135;-73
2022/04/29 02:00:21;;;;;;;14.67;10.30;;;;;;;8.46;65.60;101777.65;1697606;84;21040;-74
2022/04/29 02:02:49;;;;;;;15.77;10.30;;;;;;;8.41;65.63;101786.39;1699370;83;21443;-73
2022/04/29 02:05:18;;;;;;;15.00;9.90;;;;;;;8.37;65.66;101778.98;1691349;83;21046;-73
2022/04/29 02:07:47;;;;;;;13.13;9.08;;;;;;;8.33;65.73;101775.08;1690819;83;26870;-82
2022/04/29 02:10:16;;;;;;;16.90;10.33;;;;;;;8.30;65.79;101772.49;1693906;83;21133;-74
2022/04/29 02:12:46;;;;;;;14.33;10.07;;;;;;;8.26;65.78;101784.71;1698760;83;21072;-77
2022/04/29 02:15:17;;;;;;;17.23;10.40;;;;;;;8.23;65.84;101776.86;1689493;84;21059;-74
2022/04/29 02:17:46;;;;;;;15.10;10.10;;;;;;;8.20;65.85;101769.94;1698983;83;21021;-74
2022/04/29 02:20:13;;;;;;;18.10;10.57;;;;;;;8.20;66.02;101775.58;1692949;83;21011;-73
2022/04/29 02:22:40;;;;;;;18.43;11.37;;;;;;;8.19;65.89;101777.77;1703780;83;21154;-74
2022/04/29 02:25:09;;;;;;;15.40;10.37;;;;;;;8.17;65.91;101775.16;1697015;84;21054;-74
2022/04/29 02:27:38;;;;;;;15.97;10.17;;;;;;;8.15;65.99;101777.38;1692219;83;21529;-74
2022/04/29 02:30:07;;;;;;;17.00;9.77;;;;;;;8.13;66.18;101771.28;1698758;84;21478;-74
2022/04/29 02:32:35;;;;;;;15.95;10.32;;;;;;;8.12;65.98;101777.36;1699828;83;22436;-73
2022/04/29 02:35:05;;;;;;;15.27;9.67;;;;;;;8.11;65.72;101779.55;1696175;83;21129;-74
2022/04/29 02:37:33;;;;;;;14.97;9.50;;;;;;;8.12;65.70;101782.58;1701296;83;21008;-74
2022/04/29 02:40:01;;;;;;;15.30;9.97;;;;;;;8.13;65.61;101775.20;1701762;84;21032;-74
2022/04/29 02:42:30;;;;;;;17.00;10.10;;;;;;;8.12;65.65;101773.03;1700741;83;21000;-74
2022/04/29 02:44:58;;;;;;;13.93;9.00;;;;;;;8.14;65.85;101766.03;1695792;83;21099;-78
2022/04/29 02:47:28;;;;;;;18.37;9.43;;;;;;;8.15;65.85;101766.92;1695247;83;21149;-74
2022/04/29 02:49:55;;;;;;;14.37;8.87;;;;;;;8.15;65.67;101766.48;1696171;83;21023;-73
2022/04/29 02:52:23;;;;;;;14.27;9.57;;;;;;;8.16;65.39;101764.73;1699528;83;21047;-74
2022/04/29 02:54:50;;;;;;;13.90;8.97;;;;;;;8.16;65.33;101762.98;1698221;83;21030;-74
2022/04/29 02:57:28;;;;;;;14.50;9.67;;;;;;;8.18;65.30;101768.21;1672478;83;21035;-74
2022/04/29 02:59:56;;;;;;;13.10;8.93;;;;;;;8.14;65.10;101759.95;1696465;84;21929;-74
2022/04/29 03:02:23;;;;;;;16.50;9.90;;;;;;;8.09;65.02;101763.02;1699958;84;21008;-74
2022/04/29 03:04:50;;;;;;;18.27;10.43;;;;;;;8.02;65.09;101764.36;1695220;83;21463;-74
2022/04/29 03:07:17;;;;;;;15.47;9.63;;;;;;;7.97;65.27;101767.42;1692973;83;21051;-74
2022/04/29 03:09:48;;;;;;;14.47;9.43;;;;;;;7.91;65.29;101766.14;1697497;83;21114;-74
2022/04/29 03:12:15;;;;;;;13.43;8.60;;;;;;;7.85;65.48;101767.48;1704754;83;22454;-74
2022/04/29 03:14:44;;;;;;;13.27;9.57;;;;;;;7.77;65.57;101765.34;1704307;83;21305;-74
2022/04/29 03:19:59;;;;;;;13.87;9.10;;;;;;;7.53;65.89;101766.27;1698545;83;21071;-74
2022/04/29 03:22:27;;;;;;;12.17;8.93;;;;;;;7.36;66.13;101765.87;1696794;83;21659;-75
2022/04/29 03:24:56;;;;;;;16.33;9.77;;;;;;;7.24;66.22;101767.65;1697418;83;21122;-74
2022/04/29 03:27:23;;;;;;;11.43;8.60;;;;;;;7.11;66.37;101768.09;1698232;83;21475;-75
2022/04/29 03:29:51;;;;;;;13.30;9.00;;;;;;;7.03;66.64;101765.48;1664292;84;21512;-74
2022/04/29 03:32:18;;;;;;;12.50;9.13;;;;;;;6.97;66.80;101769.84;1697468;84;21492;-74
2022/04/29 03:35:03;;;;;;;14.33;9.50;;;;;;;6.90;67.04;101778.07;1698884;83;21125;-75
2022/04/29 03:37:31;;;;;;;13.47;8.67;;;;;;;6.81;67.02;101769.82;1694823;84;21069;-77
2022/04/29 03:39:58;;;;;;;12.33;9.13;;;;;;;6.76;67.22;101761.56;1669297;84;21046;-74
2022/04/29 03:42:25;;;;;;;15.50;9.67;;;;;;;6.70;67.49;101765.03;1667510;85;20987;-74
2022/04/29 03:44:53;;;;;;;13.67;8.33;;;;;;;6.65;67.68;101766.77;1698005;83;21052;-74
2022/04/29 03:47:22;;;;;;;12.60;7.97;;;;;;;6.60;67.91;101772.43;1697144;83;21074;-74
2022/04/29 03:49:51;;;;;;;11.13;8.30;;;;;;;6.58;68.12;101773.72;1675931;84;21124;-74
2022/04/29 03:52:19;;;;;;;14.07;9.53;;;;;;;6.54;68.18;101774.59;1691577;84;21050;-74
2022/04/29 03:54:48;;;;;;;16.90;9.53;;;;;;;6.51;68.33;101772.39;1691298;84;21494;-74
2022/04/29 03:57:16;;;;;;;12.77;9.27;;;;;;;6.47;68.36;101771.53;1702411;83;21039;-73
2022/04/29 03:59:44;;;;;;;13.67;9.17;;;;;;;6.43;68.54;101776.31;1698272;83;20995;-74
2022/04/29 04:02:11;;;;;;;14.27;8.23;;;;;;;6.39;68.61;101777.16;1699057;83;21116;-74
2022/04/29 04:04:38;;;;;;;14.17;9.90;;;;;;;6.38;68.87;101782.80;1694881;83;20948;-74
2022/04/29 04:07:07;;;;;;;11.80;8.90;;;;;;;6.35;69.00;101781.50;1701158;83;21458;-74
2022/04/29 04:09:35;;;;;;;14.17;9.10;;;;;;;6.34;69.26;101782.34;1695088;83;21037;-74
2022/04/29 04:12:06;;;;;;;14.73;9.00;;;;;;;6.34;69.54;101782.34;1692449;83;21090;-74
2022/04/29 04:14:38;;;;;;;12.60;9.17;;;;;;;6.37;69.82;101782.34;1674314;83;21234;-74
2022/04/29 04:17:05;;;;;;;15.53;9.83;;;;;;;6.44;70.08;101779.34;1696627;83;20921;-75
2022/04/29 04:19:32;;;;;;;12.47;8.80;;;;;;;6.47;70.15;101783.25;1696009;83;21063;-74
2022/04/29 04:21:59;;;;;;;13.83;8.93;;;;;;;6.52;70.33;101783.27;1693321;83;21095;-74
2022/04/29 04:24:27;;;;;;;11.97;9.03;;;;;;;6.57;70.49;101783.72;1700293;83;21008;-74
2022/04/29 04:26:55;;;;;;;14.57;8.93;;;;;;;6.61;70.69;101786.74;1697718;83;21181;-74
2022/04/29 04:29:23;;;;;;;12.17;8.47;;;;;;;6.62;70.72;101791.11;1702248;84;21009;-74
2022/04/29 04:31:51;;;;;;;11.40;7.83;;;;;;;6.66;70.72;101793.27;1699820;83;21010;-74
2022/04/29 04:37:06;;;;;;;11.40;7.83;;;;;;;6.76;70.95;101788.52;1699407;84;21048;-73
2022/04/29 04:39:33;;;;;;;13.07;8.60;;;;;;;6.80;71.08;101793.29;1692305;83;21149;-74
2022/04/29 04:42:01;;;;;;;12.80;8.47;;;;;;;6.85;71.13;101796.78;1699504;83;21079;-74
2022/04/29 04:44:42;;;;;;;11.40;8.40;;;;;;;6.90;71.21;101798.52;1696554;83;21450;-73
2022/04/29 04:47:10;;;;;;;12.60;8.57;;;;;;;6.98;71.29;101798.94;1701580;84;21071;-74
2022/04/29 04:49:38;;;;;;;15.00;8.27;;;;;;;7.03;71.03;101803.28;1684192;84;21035;-74
2022/04/29 04:52:12;;;;;;;10.60;7.00;;;;;;;7.12;70.79;101805.01;1690656;83;21918;-74
2022/04/29 04:54:40;;;;;;;11.33;7.57;;;;;;;7.32;69.93;101805.02;1698587;83;21022;-74
2022/04/29 04:57:09;;;;;;;12.17;6.73;;;;;;;7.32;69.93;101805.02;1700891;83;21807;-80
2022/04/29 04:59:36;;;;;;;12.33;6.90;;;;;;;7.41;69.57;101805.00;1694150;83;22281;-79
2022/04/29 05:02:04;;;;;;;10.53;6.40;;;;;;;7.51;69.38;101809.34;1663719;85;21397;-75
2022/04/29 05:04:50;;;;;;;13.80;7.10;;;;;;;7.61;69.21;101812.78;1691736;83;21149;-74
2022/04/29 05:07:28;;;;;;;8.83;6.13;;;;;;;7.71;69.00;101820.17;1672811;83;22225;-76
2022/04/29 05:09:54;;;;;;;11.43;6.60;;;;;;;7.79;68.61;101821.89;1695398;83;21165;-76
2022/04/29 05:12:22;;;;;;;14.77;7.00;;;;;;;7.88;68.44;101818.81;1694463;83;21035;-76
2022/04/29 05:14:51;;;;;;;15.27;7.23;;;;;;;7.96;68.26;101826.19;1685831;82;21552;-76
2022/04/29 05:17:18;;;;;;;12.17;7.43;;;;;;;8.03;68.16;101820.91;1723068;82;21132;-76
2022/04/29 05:20:04;;;;;;;12.47;6.93;;;;;;;8.12;68.17;101817.84;1723723;82;21064;-77
2022/04/29 05:22:33;;;;;;;11.10;7.90;;;;;;;8.21;68.08;101821.73;1724671;82;21064;-77
2022/04/29 05:25:00;;;;;;;14.70;7.97;;;;;;;8.30;68.11;101820.82;1728217;82;21042;-77
2022/04/29 05:27:32;;;;;;;11.33;7.83;;;;;;;8.38;67.91;101828.19;1724289;82;21087;-77
2022/04/29 05:30:19;;;;;;;12.50;7.67;;;;;;;8.46;67.80;101832.52;1718489;82;22036;-77
2022/04/29 05:32:48;;;;;;;16.05;8.53;;;;;;;8.56;67.73;101827.23;1692781;82;21032;-76
2022/04/29 05:35:35;;;;;;;11.60;7.63;;;;;;;8.64;67.66;101832.84;1719186;82;21020;-77
2022/04/29 05:38:23;;;;;;;11.73;7.20;;;;;;;8.73;67.62;101833.25;1667924;84;21598;-77
2022/04/29 05:43:37;;;;;;;11.30;7.20;;;;;;;8.89;67.10;101833.98;1697140;82;21187;-76
2022/04/29 05:46:04;;;;;;;11.43;7.30;;;;;;;8.98;67.02;101840.89;1707247;82;21122;-76
2022/04/29 05:48:31;;;;;;;11.30;7.10;;;;;;;9.05;66.86;101833.45;1718065;82;21019;-76
2022/04/29 05:50:59;;;;;;;9.20;6.97;;;;;;;9.10;66.54;101831.22;1720711;82;21017;-78
2022/04/29 05:53:27;;;;;;;12.97;7.90;;;;;;;9.17;66.48;101833.33;1720930;82;21052;-77
2022/04/29 05:55:55;;;;;;;11.97;7.80;;;;;;;9.23;66.50;101832.00;1701727;82;21244;-77
2022/04/29 05:58:22;;;;;;;11.20;7.20;;;;;;;9.29;66.15;101829.77;1722279;82;21023;-76
2022/04/29 06:01:08;;;;;;;12.03;7.87;;;;;;;9.35;66.18;101833.63;1699219;82;21002;-77
2022/04/29 06:03:35;;;;;;;10.33;7.97;;;;;;;9.43;66.15;101837.50;1693085;82;21014;-80
2022/04/29 06:06:03;;;;;;;12.77;7.87;;;;;;;9.49;66.12;101838.73;1683142;82;21043;-76
2022/04/29 06:08:30;;;;;;;10.67;6.57;;;;;;;9.55;65.87;101839.53;1714938;82;22013;-76
2022/04/29 06:10:57;;;;;;;9.13;6.60;;;;;;;9.63;65.69;101837.30;1726301;82;21535;-76
2022/04/29 06:13:24;;;;;;;14.07;7.07;;;;;;;9.69;65.38;101841.16;1727691;82;21092;-76
2022/04/29 06:15:53;;;;;;;9.77;6.60;;;;;;;9.75;65.12;101837.16;1723892;82;20989;-76
2022/04/29 06:18:32;;;;;;;11.17;5.90;;;;;;;9.81;64.80;101835.80;1675206;84;21585;-76
2022/04/29 06:21:01;;;;;;;10.68;6.85;;;;;;;9.87;64.69;101840.11;1714885;82;21896;-78
2022/04/29 06:23:47;;;;;;;13.07;7.60;;;;;;;9.93;64.61;101841.34;1728567;82;21040;-77
2022/04/29 06:26:15;;;;;;;9.38;7.47;;;;;;;10.00;64.66;101845.61;1691496;82;21017;-76
2022/04/29 06:28:43;;;;;;;10.17;7.07;;;;;;;10.09;64.30;101843.31;1729826;82;21009;-76
2022/04/29 06:31:11;;;;;;;11.03;6.90;;;;;;;10.13;64.09;101843.27;1726678;82;21039;-76
2022/04/29 06:33:43;;;;;;;12.37;7.03;;;;;;;10.20;64.12;101842.77;1703974;82;21189;-76
2022/04/29 06:36:12;;;;;;;11.53;6.97;;;;;;;10.27;64.07;101842.69;1706323;82;21060;-76
2022/04/29 06:38:40;;;;;;;12.70;6.60;;;;;;;10.36;64.09;101850.87;1695683;83;21587;-76
2022/04/29 06:41:26;;;;;;;9.53;6.43;;;;;;;10.44;63.92;101842.46;1688195;83;20977;-76
2022/04/29 06:43:58;;;;;;;12.60;7.43;;;;;;;10.51;63.70;101840.64;1665891;84;21313;-74
2022/04/29 06:46:44;;;;;;;10.50;6.10;;;;;;;10.60;63.72;101844.89;1652590;84;21186;-75
2022/04/29 06:49:30;;;;;;;9.67;7.10;;;;;;;10.70;63.77;101842.12;1652385;83;21083;-75
2022/04/29 06:52:16;;;;;;;9.13;5.13;;;;;;;10.80;63.31;101845.45;1677383;83;21026;-75
2022/04/29 06:54:51;;;;;;;9.00;5.30;;;;;;;10.88;63.26;101846.20;1697131;83;20985;-78
2022/04/29 06:57:18;;;;;;;8.57;6.00;;;;;;;11.02;62.98;101852.55;1705852;83;21052;-77
2022/04/29 06:59:46;;;;;;;8.97;5.67;;;;;;;11.13;62.92;101850.63;1665409;83;21575;-76
2022/04/29 07:02:13;;;;;;;8.40;5.50;;;;;;;11.25;62.41;101856.56;1698013;83;21188;-75
2022/04/29 07:04:41;;;;;;;7.07;4.97;;;;;;;11.32;62.01;101856.89;1708142;83;20964;-75
2022/04/29 07:07:11;;;;;;;7.10;5.00;;;;;;;11.38;61.13;101852.39;1705914;83;21056;-75
2022/04/29 07:09:40;;;;;;;10.53;6.20;;;;;;;11.44;61.08;101855.81;1707152;83;21526;-78
2022/04/29 07:12:24;;;;;;;8.13;4.80;;;;;;;11.50;61.02;101857.91;1719316;82;21972;-76
2022/04/29 07:14:59;;;;;;;10.37;4.97;;;;;;;11.59;60.64;101852.48;1680495;82;21691;-75
2022/04/29 07:17:26;;;;;;;9.10;5.20;;;;;;;11.68;60.48;101865.89;1698930;84;21047;-74
2022/04/29 07:19:55;;;;;;;9.45;5.17;;;;;;;11.77;60.40;101859.14;1703340;84;21001;-78
2022/04/29 07:22:23;;;;;;;8.25;5.33;;;;;;;11.87;60.24;101866.45;1698583;83;21036;-75
2022/04/29 07:24:52;;;;;;;9.03;5.00;;;;;;;11.95;59.90;101863.23;1700327;83;21109;-74
2022/04/29 07:27:19;;;;;;;8.03;5.20;;;;;;;12.03;59.63;101864.40;1703174;83;21051;-77
2022/04/29 07:29:46;;;;;;;8.83;5.30;;;;;;;12.09;59.10;101856.39;1722675;82;21064;-80
2022/04/29 07:32:15;;;;;;;9.38;5.37;;;;;;;12.14;59.32;101847.97;1728679;82;21099;-78
2022/04/29 07:43:48;;;;;;;8.38;5.72;;;;;;;12.69;58.85;101855.98;1683757;84;21768;-76
2022/04/29 07:46:16;;;;;;;7.95;5.20;;;;;;;12.80;58.39;101855.71;1693466;84;21549;-74
2022/04/29 07:49:01;;;;;;;9.10;6.15;;;;;;;12.87;58.09;101858.62;1697470;84;21529;-74
2022/04/29 07:51:28;;;;;;;7.83;4.78;;;;;;;12.94;57.75;101852.76;1692770;84;21156;-78
2022/04/29 07:53:55;;;;;;;7.05;5.10;;;;;;;13.02;57.50;101849.95;1692928;83;20997;-75
2022/04/29 07:56:22;;;;;;;7.67;4.80;;;;;;;13.09;57.15;101856.81;1720486;82;21067;-75
2022/04/29 07:58:50;;;;;;;7.05;4.78;;;;;;;13.11;56.59;101851.06;1703499;82;21064;-75
2022/04/29 08:01:17;;;;;;;7.45;5.30;;;;;;;13.13;56.20;101855.36;1730192;82;21056;-75
2022/04/29 08:03:45;;;;;;;8.28;4.78;;;;;;;13.21;56.38;101855.18;1731957;82;21195;-75
2022/04/29 08:06:14;;;;;;;7.55;4.83;;;;;;;13.28;56.00;101852.00;1726366;82;21020;-75
2022/04/29 08:08:41;;;;;;;10.45;4.83;;;;;;;13.32;55.71;101851.86;1727410;82;21098;-75
2022/04/29 08:11:08;;;;;;;7.87;5.05;;;;;;;13.40;55.46;101851.67;1716389;82;20920;-75
2022/04/29 08:13:37;;;;;;;7.33;4.97;;;;;;;13.46;55.57;101850.19;1717107;82;20988;-74
2022/04/29 08:16:09;;;;;;;6.12;4.67;;;;;;;13.58;55.47;101854.30;1700335;82;21332;-74
2022/04/29 08:18:43;;;;;;;6.10;4.80;;;;;;;13.69;55.32;101845.66;1687947;82;21067;-75
2022/04/29 08:21:11;;;;;;;7.67;5.30;;;;;;;13.86;55.23;101842.55;1702884;82;21023;-76
2022/04/29 08:23:39;;;;;;;6.10;4.85;;;;;;;14.02;55.28;101839.02;1699423;83;21110;-75
2022/04/29 08:26:07;;;;;;;8.95;4.83;;;;;;;14.20;55.14;101841.13;1706179;82;21039;-76
2022/04/29 08:28:33;;;;;;;6.67;5.03;;;;;;;14.33;54.95;101827.56;1727898;82;21065;-79
2022/04/29 08:31:02;;;;;;;5.45;4.20;;;;;;;14.44;54.71;101830.31;1727079;82;21072;-75
2022/04/29 08:33:31;;;;;;;8.05;4.30;;;;;;;14.48;54.07;101831.94;1688093;82;21091;-81
2022/04/29 08:36:00;;;;;;;9.08;4.72;;;;;;;14.55;53.58;101831.34;1695483;82;21697;-77
2022/04/29 08:38:27;;;;;;;9.00;5.10;;;;;;;14.62;53.32;101824.95;1688410;83;21028;-76
2022/04/29 08:41:00;;;;;;;7.08;5.00;;;;;;;14.71;53.14;101826.43;1698673;83;21116;-80
2022/04/29 08:43:28;;;;;;;8.60;5.37;;;;;;;14.73;52.54;101824.61;1710560;83;21075;-78
2022/04/29 08:45:56;;;;;;;7.10;5.08;;;;;;;14.83;52.54;101827.38;1686031;83;21028;-85
2022/04/29 08:48:45;;;;;;;7.40;5.17;;;;;;;14.90;52.50;101814.83;1710402;83;20967;-75
2022/04/29 08:51:14;;;;;;;9.83;4.85;;;;;;;15.09;52.66;101820.37;1684237;83;21038;-75
2022/04/29 08:53:41;;;;;;;8.00;5.15;;;;;;;15.25;52.62;101818.95;1710380;83;21921;-75
2022/04/29 08:58:54;;;;;;;11.18;5.67;;;;;;;15.46;51.83;101819.97;1714614;83;21988;-76
2022/04/29 09:01:21;;;;;;;7.00;4.58;;;;;;;15.54;51.34;101819.25;1711676;83;21051;-85
2022/04/29 09:03:48;;;;;;;6.97;4.75;;;;;;;15.70;51.17;101817.44;1711547;83;21477;-75
2022/04/29 09:06:17;;;;;;;7.50;4.92;;;;;;;15.87;50.93;101812.39;1710725;83;21060;-76
2022/04/29 09:08:46;;;;;;;8.23;5.30;;;;;;;15.93;50.82;101804.22;1710299;83;21031;-75
2022/04/29 09:11:27;;;;;;;7.10;5.25;;;;;;;16.04;51.12;101812.62;1712781;83;21073;-75
2022/04/29 09:13:54;;;;;;;6.53;5.03;;;;;;;16.08;50.41;101818.68;1714449;83;21052;-75
2022/04/29 09:16:24;;;;;;;7.65;4.97;;;;;;;15.98;49.82;101814.17;1708876;83;21056;-75
2022/04/29 09:18:54;;;;;;;5.87;4.92;;;;;;;15.90;49.73;101816.70;1713310;83;21154;-83
2022/04/29 09:21:28;;;;;;;5.45;4.80;;;;;;;15.79;49.61;101815.30;1715113;83;21031;-76
2022/04/29 09:23:59;;;;;;;7.78;4.62;;;;;;;15.72;49.85;101811.17;1713525;83;20947;-75
2022/04/29 09:26:45;;;;;;;9.73;5.40;;;;;;;15.83;49.66;101808.15;1713466;83;21213;-75
2022/04/29 09:29:41;;;;;;;5.62;4.42;;;;;;;15.84;48.84;101807.22;1708274;83;21019;-78
2022/04/29 09:32:22;;;;;;;7.10;4.55;;;;;;;15.84;48.84;101807.22;1726510;82;21126;-75
2022/04/29 09:34:53;;;;;;;9.05;4.47;;;;;;;15.94;49.76;101800.68;1712185;83;21958;-78
2022/04/29 09:37:29;;;;;;;5.47;4.83;;;;;;;16.17;49.65;101805.56;1708258;83;21509;-75
2022/04/29 09:40:03;;;;;;;5.85;4.30;;;;;;;16.35;49.29;101801.33;1712751;83;21034;-75
2022/04/29 09:42:40;;;;;;;7.40;4.25;;;;;;;16.51;48.35;101797.17;1710811;83;21534;-75
2022/04/29 09:45:18;;;;;;;6.58;4.05;;;;;;;16.51;48.35;101797.17;1716044;83;21115;-75
2022/04/29 09:47:45;;;;;;;7.62;4.30;;;;;;;16.63;48.14;101792.73;1712985;83;21138;-75
2022/04/29 09:50:13;;;;;;;7.28;4.28;;;;;;;16.78;47.84;101795.23;1684787;83;21496;-75
2022/04/29 09:52:43;;;;;;;6.37;4.67;;;;;;;16.91;47.88;101796.94;1707953;83;21527;-75
2022/04/29 09:55:14;;;;;;;;;;;;;;;17.08;47.69;101802.38;1707855;83;21247;-85
2022/04/29 09:57:56;;;;;;;9.93;5.50;;;;;;;17.17;46.69;101790.06;1712761;83;21358;-75
2022/04/29 10:00:21;;;;;;;8.33;4.97;;;;;;;17.33;47.21;101789.42;1713035;83;21004;-76
2022/04/29 10:02:49;;;;;;;8.18;5.08;;;;;;;17.55;47.27;101794.18;1712482;83;21043;-77
2022/04/29 10:05:16;;;;;;;5.55;4.30;;;;;;;17.68;46.85;101793.63;1708609;83;21849;-75
2022/04/29 10:07:46;;;;;;;7.67;4.28;;;;;;;17.92;46.79;101788.58;1710498;83;21027;-75
2022/04/29 10:10:14;;;;;;;4.80;3.85;;;;;;;18.15;46.73;101782.23;1712304;83;21107;-75
2022/04/29 10:12:46;;;;;;;6.83;4.45;;;;;;;18.40;46.74;101779.27;1713903;83;21497;-75
2022/04/29 10:15:26;;;;;;;7.35;4.00;;;;;;;18.68;46.07;101780.59;1708635;83;21012;-75
2022/04/29 10:21:17;;;;;;;5.58;4.17;;;;;;;18.94;45.09;101776.19;1708797;83;21027;-75
2022/04/29 10:23:51;;;;;;;5.05;3.77;;;;;;;19.31;45.32;101781.42;1713705;83;21098;-75
2022/04/29 10:26:20;;;;;;;7.87;5.15;;;;;;;19.57;44.64;101776.94;1708322;83;21158;-75
2022/04/29 10:28:49;;;;;;;7.83;3.87;;;;;;;19.80;44.65;101773.55;1711937;83;20996;-75
2022/04/29 10:31:19;;;;;;;6.20;4.17;;;;;;;19.91;43.87;101768.98;1710079;83;21538;-76
2022/04/29 10:33:47;;;;;;;6.33;4.40;;;;;;;20.13;43.70;101772.66;1713756;83;21035;-75
2022/04/29 10:36:16;;;;;;;5.78;4.25;;;;;;;20.37;43.13;101759.31;1711226;83;21895;-76
2022/04/29 10:38:48;;;;;;;5.12;3.80;;;;;;;20.55;42.39;101757.42;1711326;83;21030;-75
2022/04/29 10:41:25;;;;;;;7.20;3.92;;;;;;;20.57;42.24;101762.67;1712588;83;21544;-84
2022/04/29 10:43:58;;;;;;;6.97;3.85;;;;;;;20.76;42.29;101757.11;1708970;83;21452;-75
2022/04/29 10:46:35;;;;;;;6.33;3.58;;;;;;;21.06;41.84;101759.33;1713084;83;21127;-75
2022/04/29 10:49:29;;;;;;;4.67;3.25;;;;;;;21.28;41.54;101760.20;1709950;83;21115;-75
2022/04/29 10:52:18;;;;;;;4.33;2.80;;;;;;;21.49;40.91;101754.08;1711931;83;21066;-75
2022/04/29 10:54:47;;;;;;;4.28;2.70;;;;;;;21.68;40.48;101754.30;1707895;83;21066;-75
2022/04/29 10:57:47;;;;;;;5.62;3.52;;;;;;;21.73;39.90;101761.54;1709807;83;21497;-76
2022/04/29 11:00:23;;;;;;;5.15;3.37;;;;;;;21.80;39.58;101749.02;1711822;83;21497;-75
2022/04/29 11:02:51;;;;;;;7.17;2.80;;;;;;;21.79;39.46;101747.32;1712392;83;21110;-75
2022/04/29 11:05:36;;;;;;;4.17;2.72;;;;;;;21.90;39.24;101747.12;1707923;83;21103;-75
2022/04/29 11:08:11;;;;;;;4.67;2.70;;;;;;;21.93;38.70;101745.11;1712554;83;21037;-76
2022/04/29 11:10:59;;;;;;;8.15;2.92;;;;;;;22.02;38.14;101743.67;1708514;83;21039;-75
2022/04/29 11:13:30;;;;;;;4.15;2.55;;;;;;;22.15;38.21;101742.41;1713278;83;27062;-89
2022/04/29 11:16:15;;;;;;;4.62;2.90;;;;;;;22.35;37.76;101743.81;1723231;82;21103;-77
2022/04/29 11:19:28;;;;;;;5.22;3.40;;;;;;;22.49;37.38;101743.28;1713994;83;21000;-76
2022/04/29 11:24:50;;;;;;;9.95;2.75;;;;;;;22.35;36.89;101727.79;1725866;82;21224;-75
2022/04/29 11:27:37;;;;;;;5.00;2.33;;;;;;;22.62;36.49;101725.11;1712134;82;21013;-75
2022/04/29 11:30:02;;;;;;;2.87;2.20;;;;;;;22.57;36.02;101720.55;1727890;82;21293;-76
2022/04/29 11:32:46;;;;;;;6.40;2.20;;;;;;;22.51;36.04;101715.63;1725454;82;21499;-75
2022/04/29 11:35:14;;;;;;;3.05;2.02;;;;;;;22.74;36.13;101709.58;1705941;82;21011;-77
2022/04/29 11:37:41;;;;;;;4.12;2.12;;;;;;;23.04;35.86;101713.34;1706794;82;21537;-75
2022/04/29 11:40:11;;;;;;;4.42;2.52;;;;;;;23.18;35.48;101713.73;1719486;82;21001;-75
2022/04/29 11:42:40;;;;;;;5.40;2.87;;;;;;;23.26;35.28;101713.20;1722420;82;21650;-74
2022/04/29 11:45:11;;;;;;;3.58;2.15;;;;;;;23.43;35.20;101707.52;1705097;82;21525;-75
2022/04/29 11:47:40;;;;;;;3.62;2.65;;;;;;;23.74;35.32;101708.05;1728842;82;21294;-78
2022/04/29 11:50:08;;;;;;;3.90;2.95;;;;;;;23.74;34.66;101707.55;1726960;82;20991;-75
2022/04/29 11:52:40;;;;;;;3.65;2.65;;;;;;;23.75;34.85;101700.38;1729356;82;21065;-76
2022/04/29 11:55:06;;;;;;;;;;;;;;;23.67;34.62;101698.73;1729158;82;21153;-78
2022/04/29 11:57:44;;;;;;;5.55;2.77;;;;;;;23.46;33.94;101696.59;1719767;82;20574;-75
2022/04/29 12:00:31;;;;;;;5.22;3.60;;;;;;;23.35;34.48;101696.02;1731069;82;21117;-75
2022/04/29 12:03:00;;;;;;;4.20;2.60;;;;;;;23.52;34.63;101691.29;1730306;82;21043;-78
2022/04/29 12:05:30;;;;;;;3.20;2.20;;;;;;;23.75;34.30;101686.98;1724815;82;21098;-77
2022/04/29 12:08:02;;;;;;;4.47;3.47;;;;;;;23.95;34.12;101674.85;1721698;82;21125;-77